Time;durP1;ratioP1;P1;durP2;ratioP2;P2;SDS_P1;SDS_P2;PMS_P1;PMS_P2;Temp;Humidity;BMP_temperature;BMP_pressure;BME280_temperature;BME280_humidity;BME280_pressure;Samples;Min_cycle;Max_cycle;Signal;HPM_P1;HPM_P2
2021/05/26 00:00:24;;;;;;;1.45;0.80;;;;;;;12.07;50.40;95622.63;4931912;28;20054;-64
2021/05/26 00:02:50;;;;;;;1.15;0.65;;;;;;;11.93;49.99;95612.81;4946507;28;20039;-64
2021/05/26 00:05:16;;;;;;;2.22;0.93;;;;;;;12.16;50.56;95637.63;4933981;29;20039;-64
2021/05/26 00:07:41;;;;;;;0.57;0.50;;;;;;;12.14;49.85;95628.38;4932186;28;20454;-65
2021/05/26 00:10:07;;;;;;;2.97;0.70;;;;;;;12.07;50.72;95630.63;4931929;28;20035;-64
2021/05/26 00:12:33;;;;;;;6.15;1.08;;;;;;;12.00;50.97;95628.38;4931179;28;20371;-64
2021/05/26 00:14:58;;;;;;;4.82;0.80;;;;;;;11.91;50.76;95622.97;4931854;28;20046;-64
2021/05/26 00:17:23;;;;;;;2.85;0.70;;;;;;;11.78;50.61;95605.13;4933885;29;20177;-64
2021/05/26 00:19:49;;;;;;;1.67;0.70;;;;;;;11.45;50.95;95623.91;4931799;28;20529;-64
2021/05/26 00:22:14;;;;;;;1.42;0.70;;;;;;;11.18;51.12;95581.31;4930461;29;20065;-64
2021/05/26 00:24:40;;;;;;;3.92;0.82;;;;;;;11.41;51.21;95601.63;4931844;29;20040;-64
2021/05/26 00:27:05;;;;;;;1.48;0.65;;;;;;;11.31;51.44;95588.50;4931794;28;20036;-64
2021/05/26 00:29:31;;;;;;;1.77;0.50;;;;;;;11.41;51.39;95609.63;4948356;29;20547;-65
2021/05/26 00:31:56;;;;;;;1.30;0.73;;;;;;;10.82;51.24;95589.97;4931917;29;20035;-64
2021/05/26 00:34:22;;;;;;;1.42;0.50;;;;;;;11.25;51.05;95607.53;4931376;28;20387;-64
2021/05/26 00:36:47;;;;;;;2.33;0.73;;;;;;;11.28;51.49;95607.75;4932005;28;20043;-64
2021/05/26 00:39:12;;;;;;;2.35;1.00;;;;;;;11.26;51.41;95598.44;4930405;28;20059;-64
2021/05/26 00:41:38;;;;;;;2.60;0.70;;;;;;;11.24;51.40;95593.44;4933382;29;20056;-64
2021/05/26 00:44:04;;;;;;;2.53;0.90;;;;;;;11.07;51.71;95571.94;4931499;29;20032;-64
2021/05/26 00:46:29;;;;;;;4.13;0.80;;;;;;;11.23;51.11;95591.88;4930371;29;20118;-65
2021/05/26 00:48:55;;;;;;;2.75;0.75;;;;;;;11.14;51.87;95586.44;4931578;28;20040;-64
2021/05/26 00:51:20;;;;;;;1.40;0.80;;;;;;;11.15;51.79;95593.31;4931508;28;20039;-64
2021/05/26 00:53:46;;;;;;;2.28;0.70;;;;;;;11.12;52.24;95585.16;4929876;29;20023;-64
2021/05/26 00:56:12;;;;;;;1.30;0.63;;;;;;;10.98;52.27;95566.50;4936438;29;20024;-64
2021/05/26 00:58:37;;;;;;;2.58;0.85;;;;;;;11.00;52.70;95582.19;4950209;28;20405;-64
2021/05/26 01:01:03;;;;;;;1.20;0.63;;;;;;;10.85;53.07;95576.09;4935089;29;20040;-64
2021/05/26 01:03:28;;;;;;;1.33;0.80;;;;;;;10.85;52.91;95586.72;4935246;28;20032;-64
2021/05/26 01:05:55;;;;;;;3.58;0.93;;;;;;;10.78;53.17;95577.53;4935232;28;20062;-64
2021/05/26 01:08:20;;;;;;;3.13;1.00;;;;;;;10.73;53.72;95574.97;4937284;29;20051;-64
2021/05/26 01:10:46;;;;;;;3.35;0.90;;;;;;;10.67;54.52;95572.41;4934885;28;20071;-64
2021/05/26 01:13:12;;;;;;;2.85;0.95;;;;;;;10.54;53.91;95543.09;4934829;28;20064;-64
2021/05/26 01:15:40;;;;;;;2.60;0.70;;;;;;;10.64;55.06;95570.31;4935200;28;20058;-65
2021/05/26 01:18:17;;;;;;;1.08;0.70;;;;;;;10.61;55.40;95578.13;4934922;28;20045;-64
2021/05/26 01:20:43;;;;;;;2.17;0.63;;;;;;;10.45;55.19;95553.66;4935094;28;20035;-64
2021/05/26 01:23:08;;;;;;;1.55;0.40;;;;;;;10.49;55.57;95565.25;4936508;29;20028;-64
2021/05/26 01:25:34;;;;;;;1.33;1.20;;;;;;;10.23;55.46;95540.16;4935167;28;20046;-64
2021/05/26 01:27:59;;;;;;;2.13;0.68;;;;;;;10.04;55.86;95527.72;4934936;28;20055;-64
2021/05/26 01:30:25;;;;;;;2.22;0.80;;;;;;;10.07;55.93;95543.06;4949451;28;20031;-64
2021/05/26 01:32:53;;;;;;;1.23;0.60;;;;;;;9.81;57.12;95518.75;4934216;28;20024;-64
2021/05/26 01:35:19;;;;;;;3.35;1.00;;;;;;;9.95;57.35;95556.03;4936785;29;20039;-64
2021/05/26 01:37:47;;;;;;;1.20;0.70;;;;;;;9.75;57.44;95530.53;4934688;28;20035;-65
2021/05/26 01:40:16;;;;;;;2.25;0.80;;;;;;;9.76;57.66;95549.94;4934809;28;20060;-65
2021/05/26 01:42:41;;;;;;;2.58;0.80;;;;;;;9.55;58.03;95526.31;4934130;28;20048;-65
2021/05/26 01:45:10;;;;;;;1.23;0.80;;;;;;;9.61;58.26;95548.28;4934759;28;20380;-66
2021/05/26 01:47:35;;;;;;;0.80;0.80;;;;;;;9.41;59.09;95522.00;4936644;29;20114;-66
2021/05/26 01:50:01;;;;;;;3.22;1.30;;;;;;;9.31;59.19;95515.75;4934506;28;20127;-65
2021/05/26 01:52:27;;;;;;;1.17;0.70;;;;;;;9.43;59.46;95535.78;4934037;28;20078;-65
2021/05/26 01:54:52;;;;;;;2.05;0.70;;;;;;;9.47;59.95;95534.94;4934550;28;20517;-64
2021/05/26 01:57:18;;;;;;;0.98;0.70;;;;;;;9.51;59.78;95533.25;4949149;28;20494;-63
2021/05/26 01:59:43;;;;;;;1.77;0.85;;;;;;;9.55;60.23;95536.16;4934343;28;20028;-63
2021/05/26 02:02:09;;;;;;;2.13;1.02;;;;;;;9.55;59.95;95539.59;4935711;29;20039;-63
2021/05/26 02:04:34;;;;;;;1.92;0.88;;;;;;;9.35;59.64;95506.13;4933982;28;20544;-63
2021/05/26 02:07:11;;;;;;;2.05;0.60;;;;;;;9.41;59.87;95517.47;4933292;28;20035;-63
2021/05/26 02:09:37;;;;;;;1.30;0.70;;;;;;;9.20;60.53;95486.97;4934227;29;20040;-63
2021/05/26 02:12:23;;;;;;;1.52;0.85;;;;;;;9.40;60.24;95521.22;4934091;28;20098;-63
2021/05/26 02:14:53;;;;;;;3.45;0.80;;;;;;;9.29;60.12;95509.94;4948575;28;20055;-63
2021/05/26 02:17:19;;;;;;;3.17;1.00;;;;;;;9.14;60.78;95482.81;4935416;29;20034;-63
2021/05/26 02:19:44;;;;;;;1.75;0.77;;;;;;;9.32;60.44;95521.88;4933265;29;20434;-63
2021/05/26 02:22:10;;;;;;;3.22;0.82;;;;;;;9.26;60.80;95515.03;4933575;28;20071;-63
2021/05/26 02:24:35;;;;;;;1.00;0.60;;;;;;;9.15;60.72;95498.44;4948286;28;20067;-63
2021/05/26 02:27:01;;;;;;;1.05;0.70;;;;;;;9.07;60.66;95483.97;4933911;28;20083;-63
2021/05/26 02:29:26;;;;;;;2.00;0.70;;;;;;;9.32;60.48;95522.66;4935823;29;20091;-63
2021/05/26 02:31:52;;;;;;;1.92;0.80;;;;;;;8.80;60.30;95444.78;4933796;28;20117;-63
2021/05/26 02:34:18;;;;;;;2.15;0.73;;;;;;;9.28;61.01;95512.91;4947932;29;20036;-63
2021/05/26 02:36:44;;;;;;;2.25;0.90;;;;;;;9.19;60.75;95503.97;4948621;28;20052;-63
2021/05/26 02:39:10;;;;;;;1.13;0.80;;;;;;;9.21;60.65;95507.91;4933733;29;20046;-63
2021/05/26 02:41:35;;;;;;;1.45;0.80;;;;;;;9.17;60.76;95503.50;4935712;29;20031;-63
2021/05/26 02:44:01;;;;;;;2.15;0.77;;;;;;;9.17;60.76;95509.59;4933231;29;20051;-67
2021/05/26 02:46:26;;;;;;;1.35;0.70;;;;;;;9.10;61.13;95503.81;4948246;28;20046;-64
2021/05/26 02:48:52;;;;;;;1.38;0.70;;;;;;;8.99;61.00;95492.56;4933440;28;20402;-66
2021/05/26 02:51:19;;;;;;;2.15;0.80;;;;;;;9.01;61.33;95502.91;4933220;28;20043;-64
2021/05/26 02:53:44;;;;;;;2.55;0.82;;;;;;;8.21;61.14;95381.56;4932831;28;20051;-62
2021/05/26 02:56:10;;;;;;;7.80;1.13;;;;;;;8.84;61.37;95482.13;4934888;29;20027;-62
2021/05/26 02:58:36;;;;;;;4.32;1.00;;;;;;;8.86;61.27;95495.91;4947775;28;20055;-62
2021/05/26 03:01:02;;;;;;;2.58;0.80;;;;;;;8.61;61.82;95459.09;4933298;28;20035;-65
2021/05/26 03:03:27;;;;;;;3.75;1.08;;;;;;;8.36;61.77;95434.44;4915854;29;20047;-65
2021/05/26 03:05:53;;;;;;;2.25;0.60;;;;;;;8.46;61.75;95452.88;4933396;28;20028;-64
2021/05/26 03:08:18;;;;;;;1.48;1.08;;;;;;;8.67;62.56;95484.47;4935161;29;20553;-62
2021/05/26 03:10:43;;;;;;;0.82;0.60;;;;;;;8.35;62.20;95438.13;4932898;28;20401;-65
2021/05/26 03:13:09;;;;;;;1.90;0.75;;;;;;;8.52;62.22;95462.34;4932337;29;20058;-63
2021/05/26 03:15:34;;;;;;;2.55;0.90;;;;;;;8.55;62.20;95456.50;4933044;28;20047;-63
2021/05/26 03:17:59;;;;;;;1.02;0.80;;;;;;;8.64;62.23;95469.88;4932982;28;20042;-63
2021/05/26 03:20:25;;;;;;;1.60;0.80;;;;;;;8.68;62.41;95478.88;4934903;29;20500;-63
2021/05/26 03:22:50;;;;;;;2.63;0.70;;;;;;;8.63;62.55;95472.84;4932458;28;20110;-63
2021/05/26 03:25:16;;;;;;;2.00;0.90;;;;;;;7.85;62.34;95352.03;4932823;29;20050;-63
2021/05/26 03:27:42;;;;;;;1.77;0.70;;;;;;;8.62;62.79;95465.97;4947615;28;20091;-63
2021/05/26 03:30:16;;;;;;;2.45;0.80;;;;;;;8.70;62.77;95475.91;4931483;29;20036;-63
2021/05/26 03:32:43;;;;;;;5.45;1.20;;;;;;;8.73;62.32;95481.47;4946988;28;20577;-62
2021/05/26 03:35:11;;;;;;;1.50;0.70;;;;;;;8.55;62.63;95437.13;4949604;29;20032;-63
2021/05/26 03:37:37;;;;;;;1.55;0.80;;;;;;;8.76;62.43;95451.72;4932872;28;20043;-64
2021/05/26 03:40:05;;;;;;;1.38;0.70;;;;;;;8.92;61.95;95475.41;4932950;28;20061;-63
2021/05/26 03:42:30;;;;;;;1.77;0.50;;;;;;;9.02;61.91;95481.38;4932284;28;20126;-63
2021/05/26 03:44:55;;;;;;;0.47;0.47;;;;;;;9.17;61.79;95472.44;4932730;28;20139;-63
2021/05/26 03:47:21;;;;;;;4.00;0.80;;;;;;;9.14;61.60;95451.75;4934460;29;20036;-63
2021/05/26 03:49:46;;;;;;;4.70;1.15;;;;;;;9.42;60.71;95467.81;4932438;28;20063;-63
2021/05/26 03:52:12;;;;;;;2.78;1.10;;;;;;;9.62;60.13;95470.97;4931768;28;20039;-63
2021/05/26 03:54:37;;;;;;;1.63;0.73;;;;;;;9.79;59.31;95470.44;4932262;28;20051;-63
2021/05/26 03:57:05;;;;;;;1.33;0.65;;;;;;;9.34;59.27;95376.34;4932176;28;20513;-64
2021/05/26 03:59:30;;;;;;;2.17;0.90;;;;;;;10.08;58.71;95458.78;4934735;29;20176;-63
2021/05/26 04:01:56;;;;;;;1.52;0.60;;;;;;;10.05;58.09;95408.91;4932443;28;20494;-64
2021/05/26 04:04:21;;;;;;;0.90;0.60;;;;;;;10.59;57.74;95424.09;4931999;29;20048;-63
2021/05/26 04:06:46;;;;;;;1.00;0.50;;;;;;;10.78;56.36;95407.25;4932546;28;20043;-63
2021/05/26 04:09:12;;;;;;;2.22;0.57;;;;;;;11.25;55.88;95458.41;4931938;28;20493;-63
2021/05/26 04:11:37;;;;;;;2.45;0.60;;;;;;;11.14;54.70;95416.03;4932106;28;20051;-63
2021/05/26 04:14:03;;;;;;;2.90;0.80;;;;;;;11.53;53.79;95459.13;4933577;29;20387;-64
2021/05/26 04:16:29;;;;;;;2.35;0.63;;;;;;;11.58;53.78;95464.34;4931803;28;20126;-63
2021/05/26 04:18:54;;;;;;;2.00;1.00;;;;;;;11.51;54.15;95455.97;4930723;29;20043;-63
2021/05/26 04:21:19;;;;;;;1.65;0.93;;;;;;;11.38;53.79;95429.09;4931581;28;20054;-63
2021/05/26 04:23:45;;;;;;;2.20;0.80;;;;;;;11.52;54.25;95437.03;4931501;28;20035;-63
2021/05/26 04:26:10;;;;;;;0.60;0.50;;;;;;;11.66;53.73;95452.94;4948392;29;20731;-63
2021/05/26 04:28:42;;;;;;;1.77;0.80;;;;;;;11.58;53.33;95438.50;4946491;29;20079;-64
2021/05/26 04:31:11;;;;;;;3.97;1.00;;;;;;;11.71;53.53;95442.16;4945858;28;20051;-63
2021/05/26 04:33:38;;;;;;;2.75;1.10;;;;;;;11.79;53.28;95441.44;4931098;28;20035;-63
2021/05/26 04:36:03;;;;;;;2.67;1.15;;;;;;;11.43;52.69;95367.72;4931626;29;20074;-64
2021/05/26 04:38:29;;;;;;;3.42;1.15;;;;;;;11.96;53.09;95425.59;4933647;29;20251;-64
2021/05/26 04:40:54;;;;;;;3.80;0.75;;;;;;;11.95;52.47;95401.91;4931690;28;20047;-63
2021/05/26 04:43:20;;;;;;;1.60;0.73;;;;;;;12.30;52.21;95428.75;4945287;28;20506;-63
2021/05/26 04:45:45;;;;;;;1.85;0.70;;;;;;;12.62;51.50;95441.72;4931599;28;20047;-64
2021/05/26 04:48:10;;;;;;;1.55;0.82;;;;;;;12.32;50.43;95368.66;4931554;29;20039;-64
2021/05/26 04:50:37;;;;;;;1.95;0.98;;;;;;;13.11;50.07;95442.50;4933430;29;20067;-63
2021/05/26 04:53:02;;;;;;;1.50;0.63;;;;;;;13.32;49.23;95425.88;4945653;28;20054;-66
2021/05/26 04:55:28;;;;;;;1.45;0.90;;;;;;;13.56;48.84;95431.53;4946019;28;20032;-66
2021/05/26 04:58:01;;;;;;;2.38;0.82;;;;;;;13.72;48.43;95439.88;4931417;29;20446;-64
2021/05/26 05:00:28;;;;;;;2.85;0.77;;;;;;;13.88;47.83;95446.28;4928497;28;20447;-65
2021/05/26 05:02:53;;;;;;;2.33;0.70;;;;;;;13.83;46.98;95432.31;4930665;28;20054;-62
2021/05/26 05:05:20;;;;;;;2.38;0.90;;;;;;;13.85;46.28;95446.91;4933253;29;20450;-68
2021/05/26 05:07:45;;;;;;;1.50;0.80;;;;;;;13.69;46.56;95425.25;4931322;28;20042;-62
2021/05/26 05:10:11;;;;;;;0.70;0.50;;;;;;;13.97;46.78;95443.59;4931181;28;20048;-66
2021/05/26 05:12:36;;;;;;;3.45;1.45;;;;;;;14.03;46.12;95440.44;4930591;28;20044;-62
2021/05/26 05:15:03;;;;;;;2.50;1.10;;;;;;;14.19;46.54;95454.09;4931245;28;20048;-63
2021/05/26 05:17:28;;;;;;;4.70;1.00;;;;;;;14.41;46.31;95447.72;4933230;29;20149;-68
2021/05/26 05:19:54;;;;;;;1.63;0.65;;;;;;;14.57;45.35;95430.06;4930473;29;20092;-66
2021/05/26 05:22:19;;;;;;;2.53;0.90;;;;;;;14.88;45.18;95450.38;4930717;28;20051;-62
2021/05/26 05:24:44;;;;;;;2.20;1.10;;;;;;;15.12;45.45;95446.34;4931071;28;20103;-62
2021/05/26 05:27:10;;;;;;;0.95;0.68;;;;;;;15.04;45.07;95429.97;4930994;28;20036;-61
2021/05/26 05:29:35;;;;;;;1.55;0.90;;;;;;;15.27;44.51;95440.41;4932990;29;20038;-62
2021/05/26 05:32:01;;;;;;;1.63;0.57;;;;;;;15.40;43.71;95450.06;4929676;28;20051;-62
2021/05/26 05:34:26;;;;;;;1.88;0.90;;;;;;;15.51;42.85;95435.19;4930249;28;20082;-63
2021/05/26 05:36:51;;;;;;;1.40;0.80;;;;;;;15.59;43.15;95426.25;4934510;28;20545;-63
2021/05/26 05:39:17;;;;;;;1.75;0.80;;;;;;;15.76;42.58;95435.28;4940066;28;20114;-63
2021/05/26 05:41:44;;;;;;;2.88;0.60;;;;;;;15.98;41.74;95437.63;4950991;28;20504;-64
2021/05/26 05:44:10;;;;;;;0.88;0.43;;;;;;;16.03;41.25;95437.44;4955484;28;20111;-69
2021/05/26 05:46:35;;;;;;;2.00;0.73;;;;;;;16.03;41.04;95415.19;4968038;28;20130;-66
2021/05/26 05:49:00;;;;;;;1.83;0.63;;;;;;;16.36;40.89;95426.63;4953633;28;20468;-69
2021/05/26 05:51:26;;;;;;;2.63;0.70;;;;;;;16.51;40.89;95424.44;4953434;28;20031;-66
2021/05/26 05:53:51;;;;;;;2.17;0.80;;;;;;;16.49;40.14;95414.03;4952785;28;20389;-68
2021/05/26 05:56:17;;;;;;;1.08;0.63;;;;;;;16.87;40.35;95427.16;4955225;28;20032;-65
2021/05/26 05:58:42;;;;;;;1.88;0.80;;;;;;;16.65;39.81;95368.50;4951596;28;20501;-65
2021/05/26 06:01:07;;;;;;;1.00;0.63;;;;;;;17.21;39.36;95414.34;4953300;28;20058;-64
2021/05/26 06:03:33;;;;;;;1.77;0.68;;;;;;;17.38;38.57;95419.47;4951555;28;20031;-66
2021/05/26 06:05:58;;;;;;;1.95;0.82;;;;;;;17.54;38.48;95414.16;4953292;28;20051;-66
2021/05/26 06:08:24;;;;;;;1.75;0.75;;;;;;;17.66;38.42;95395.28;4955371;28;20394;-68
2021/05/26 06:10:49;;;;;;;1.58;0.70;;;;;;;17.99;38.02;95418.47;4953172;28;20066;-66
2021/05/26 06:13:15;;;;;;;1.80;0.43;;;;;;;18.27;37.41;95420.34;4952902;28;20397;-67
2021/05/26 06:15:41;;;;;;;1.58;0.63;;;;;;;18.44;37.60;95420.81;4953290;28;20043;-66
2021/05/26 06:18:06;;;;;;;3.75;0.52;;;;;;;18.55;36.79;95417.59;4953052;28;20063;-67
2021/05/26 06:20:32;;;;;;;1.35;0.70;;;;;;;18.49;36.76;95402.81;4954925;28;20039;-68
2021/05/26 06:22:58;;;;;;;0.90;0.65;;;;;;;18.55;36.49;95404.13;4951325;28;20051;-67
2021/05/26 06:25:23;;;;;;;1.05;0.45;;;;;;;18.65;35.47;95414.38;4952739;28;20078;-66
2021/05/26 06:27:48;;;;;;;5.15;1.00;;;;;;;18.69;35.05;95410.66;4951499;29;20044;-67
2021/05/26 06:30:14;;;;;;;0.70;0.50;;;;;;;18.81;35.41;95403.63;4952743;28;20520;-65
2021/05/26 06:32:40;;;;;;;1.88;0.60;;;;;;;18.84;34.87;95401.00;4953606;23;20179;-66
2021/05/26 06:35:06;;;;;;;1.77;0.60;;;;;;;18.59;35.29;95378.84;4935548;29;20114;-67
2021/05/26 06:37:31;;;;;;;1.23;0.63;;;;;;;18.93;35.50;95396.19;4932235;28;20092;-67
2021/05/26 06:39:57;;;;;;;1.70;0.60;;;;;;;19.08;35.37;95397.28;4943745;28;20584;-67
2021/05/26 06:42:22;;;;;;;1.65;0.70;;;;;;;18.61;34.33;95303.81;4952110;28;20497;-68
2021/05/26 06:44:48;;;;;;;1.42;0.52;;;;;;;19.28;34.47;95394.63;4951279;28;20070;-67
2021/05/26 06:47:14;;;;;;;1.27;0.50;;;;;;;19.33;34.71;95391.66;4935346;29;20074;-67
2021/05/26 06:49:39;;;;;;;1.20;0.50;;;;;;;19.41;33.90;95380.69;4947951;29;20042;-67
2021/05/26 06:52:05;;;;;;;1.02;0.50;;;;;;;19.40;33.38;95381.03;4940615;28;20047;-67
2021/05/26 06:54:30;;;;;;;2.40;0.50;;;;;;;19.28;32.45;95375.75;4932598;28;20028;-66
2021/05/26 06:56:56;;;;;;;0.93;0.50;;;;;;;18.74;33.11;95384.59;4933338;29;20497;-67
2021/05/26 06:59:21;;;;;;;0.43;0.40;;;;;;;18.73;33.72;95388.41;4935101;29;20020;-67
2021/05/26 07:01:47;;;;;;;1.77;0.50;;;;;;;18.57;33.69;95381.09;4933102;28;20509;-68
2021/05/26 07:04:12;;;;;;;1.63;0.80;;;;;;;18.74;33.68;95371.91;4944968;28;20126;-68
2021/05/26 07:06:38;;;;;;;4.32;0.60;;;;;;;18.69;33.89;95378.34;4950850;28;20050;-67
2021/05/26 07:09:03;;;;;;;1.67;0.70;;;;;;;18.96;34.25;95375.84;4948924;28;20123;-67
2021/05/26 07:11:29;;;;;;;0.50;0.30;;;;;;;18.82;32.83;95380.91;4934088;29;20087;-67
2021/05/26 07:13:54;;;;;;;1.15;0.40;;;;;;;18.67;33.14;95358.22;4950641;28;20504;-66
2021/05/26 07:16:19;;;;;;;0.98;0.50;;;;;;;19.00;33.05;95365.94;4938427;28;20099;-67
2021/05/26 07:18:48;;;;;;;0.90;0.40;;;;;;;19.32;32.14;95363.13;4931235;29;20146;-66
2021/05/26 07:21:15;;;;;;;1.27;0.60;;;;;;;19.40;32.88;95346.75;4937301;28;20043;-67
2021/05/26 07:23:41;;;;;;;0.75;0.40;;;;;;;18.98;33.61;95346.63;4951323;28;20028;-67
2021/05/26 07:26:07;;;;;;;1.45;0.40;;;;;;;19.81;33.26;95357.97;4953714;29;20029;-67
2021/05/26 07:28:32;;;;;;;2.42;0.60;;;;;;;19.50;32.12;95358.88;4952192;28;20397;-68
2021/05/26 07:30:57;;;;;;;0.98;0.68;;;;;;;20.35;31.83;95346.16;4951868;28;20047;-67
2021/05/26 07:33:23;;;;;;;0.73;0.40;;;;;;;20.81;30.45;95342.66;4951280;28;20131;-67
2021/05/26 07:35:48;;;;;;;1.15;0.45;;;;;;;20.02;29.42;95346.78;4950487;28;20019;-67
2021/05/26 07:38:14;;;;;;;0.77;0.43;;;;;;;18.59;32.65;95346.50;4932996;29;20023;-67
2021/05/26 07:40:39;;;;;;;1.30;0.50;;;;;;;18.54;33.33;95351.38;4947155;29;20354;-67
2021/05/26 07:43:05;;;;;;;2.25;0.50;;;;;;;19.12;32.29;95341.53;4951081;28;20039;-67
2021/05/26 07:45:30;;;;;;;1.55;0.60;;;;;;;19.95;31.58;95333.13;4944763;28;20486;-68
2021/05/26 07:47:55;;;;;;;0.88;0.40;;;;;;;20.70;30.08;95334.38;4934782;28;20082;-68
2021/05/26 07:50:21;;;;;;;1.80;0.55;;;;;;;20.73;29.38;95333.66;4953291;29;20054;-68
2021/05/26 07:52:46;;;;;;;2.13;0.70;;;;;;;19.27;31.91;95333.75;4950596;28;20047;-68
2021/05/26 07:55:14;;;;;;;1.52;0.73;;;;;;;20.15;31.60;95331.94;4951251;28;20059;-67
2021/05/26 07:57:39;;;;;;;3.28;0.70;;;;;;;20.55;30.40;95313.69;4951171;28;20086;-68
2021/05/26 08:00:07;;;;;;;1.00;0.50;;;;;;;21.27;30.02;95318.94;4951269;28;20501;-68
2021/05/26 08:02:32;;;;;;;1.15;0.40;;;;;;;21.69;28.74;95317.88;4952563;29;20031;-67
2021/05/26 08:04:57;;;;;;;0.88;0.40;;;;;;;22.29;28.57;95315.78;4950356;28;20035;-68
2021/05/26 08:07:23;;;;;;;1.38;0.40;;;;;;;22.80;28.13;95306.09;4951243;28;20054;-68
2021/05/26 08:09:48;;;;;;;0.95;0.50;;;;;;;22.64;27.15;95305.59;4949881;28;20537;-67
2021/05/26 08:12:14;;;;;;;1.92;0.80;;;;;;;21.26;28.07;95299.22;4950512;28;20095;-67
2021/05/26 08:14:39;;;;;;;1.10;0.40;;;;;;;19.61;29.95;95324.81;4949530;28;20024;-68
2021/05/26 08:17:05;;;;;;;1.90;0.60;;;;;;;20.08;29.18;95320.25;4933789;29;20095;-68
2021/05/26 08:19:32;;;;;;;1.33;0.40;;;;;;;20.12;30.17;95305.69;4932107;28;20035;-65
2021/05/26 08:21:57;;;;;;;1.60;0.85;;;;;;;20.42;29.22;95313.06;4930546;28;20095;-67
2021/05/26 08:24:23;;;;;;;3.20;0.70;;;;;;;19.31;32.39;95318.41;4931411;29;20040;-66
2021/05/26 08:26:49;;;;;;;2.67;0.50;;;;;;;20.35;31.18;95312.97;4932923;28;20048;-67
2021/05/26 08:29:15;;;;;;;0.98;0.50;;;;;;;20.88;30.09;95297.59;4952742;29;20428;-66
2021/05/26 08:31:41;;;;;;;1.85;0.70;;;;;;;21.11;29.33;95311.00;4950685;28;20098;-66
2021/05/26 08:34:07;;;;;;;1.13;0.60;;;;;;;20.42;29.55;95308.47;4950362;28;20058;-67
2021/05/26 08:36:32;;;;;;;1.02;0.40;;;;;;;21.06;29.97;95305.13;4943691;28;20126;-66
2021/05/26 08:38:58;;;;;;;3.25;0.75;;;;;;;20.86;29.66;95299.09;4934090;28;20023;-66
2021/05/26 08:41:24;;;;;;;2.15;0.70;;;;;;;20.19;29.68;95305.00;4952372;29;20038;-66
2021/05/26 08:43:49;;;;;;;1.48;0.60;;;;;;;20.51;29.61;95298.19;4950362;28;20038;-67
2021/05/26 08:46:15;;;;;;;2.45;0.60;;;;;;;20.66;30.02;95301.88;4938177;28;20446;-66
2021/05/26 08:48:42;;;;;;;1.27;0.50;;;;;;;21.05;29.70;95295.47;4938549;29;20035;-67
2021/05/26 08:51:10;;;;;;;2.50;0.82;;;;;;;19.30;31.65;95300.69;4946797;28;20054;-67
2021/05/26 08:53:36;;;;;;;2.25;0.52;;;;;;;19.15;31.82;95286.91;4933161;29;20571;-66
2021/05/26 08:56:03;;;;;;;1.52;0.70;;;;;;;19.63;31.64;95284.75;4931353;28;20126;-66
2021/05/26 08:58:28;;;;;;;1.95;0.60;;;;;;;20.00;31.31;95298.50;4931567;28;20050;-66
2021/05/26 09:00:53;;;;;;;3.30;0.63;;;;;;;20.19;31.67;95300.38;4931379;28;20062;-66
2021/05/26 09:03:20;;;;;;;1.90;0.75;;;;;;;20.20;31.54;95291.13;4930869;28;20042;-66
2021/05/26 09:05:53;;;;;;;4.70;0.80;;;;;;;20.43;30.93;95293.03;4931418;29;20024;-66
2021/05/26 09:08:19;;;;;;;1.58;0.70;;;;;;;20.50;31.05;95279.66;4933265;29;20128;-66
2021/05/26 09:10:46;;;;;;;2.60;0.60;;;;;;;20.02;31.20;95284.69;4931231;29;20078;-67
2021/05/26 09:13:38;;;;;;;2.03;0.85;;;;;;;18.45;33.46;95297.69;4930905;28;20046;-67
2021/05/26 09:16:07;;;;;;;1.33;0.80;;;;;;;18.36;33.72;95297.09;4944160;28;20120;-67
2021/05/26 09:18:58;;;;;;;1.13;0.68;;;;;;;17.90;35.07;95302.13;4954413;28;20031;-66
2021/05/26 09:21:46;;;;;;;1.73;0.80;;;;;;;18.01;34.50;95300.47;4954114;28;20082;-66
2021/05/26 09:24:21;;;;;;;2.75;0.60;;;;;;;18.43;34.35;95299.97;4949620;28;20279;-66
2021/05/26 09:26:54;;;;;;;2.15;0.85;;;;;;;19.10;34.25;95289.88;4935947;28;20030;-66
2021/05/26 09:29:33;;;;;;;7.07;0.77;;;;;;;17.86;34.37;95288.59;4956072;29;20104;-66
2021/05/26 09:32:21;;;;;;;3.03;0.82;;;;;;;19.27;32.97;95274.41;4935546;28;20048;-64
2021/05/26 09:34:48;;;;;;;3.10;0.77;;;;;;;20.39;32.64;95270.59;4935117;28;20090;-64
2021/05/26 09:37:19;;;;;;;1.80;0.85;;;;;;;21.28;31.51;95264.44;4934653;29;20040;-64
2021/05/26 09:39:57;;;;;;;0.98;0.65;;;;;;;20.26;31.51;95259.19;4934587;28;20124;-68
2021/05/26 09:42:26;;;;;;;2.95;0.88;;;;;;;19.55;32.67;95263.38;4939802;28;20035;-68
2021/05/26 09:45:26;;;;;;;4.03;0.93;;;;;;;19.44;32.61;95265.88;4953676;28;20093;-68
2021/05/26 09:47:58;;;;;;;2.00;0.82;;;;;;;19.49;32.32;95257.47;4948758;28;20039;-66
2021/05/26 09:50:26;;;;;;;3.15;1.10;;;;;;;18.98;33.36;95260.34;4955425;29;20063;-66
2021/05/26 09:52:59;;;;;;;2.63;1.08;;;;;;;18.40;34.09;95266.41;4953064;28;20175;-64
2021/05/26 09:55:26;;;;;;;2.67;1.00;;;;;;;18.00;34.49;95263.16;4953166;28;20110;-64
2021/05/26 09:57:52;;;;;;;1.92;0.77;;;;;;;18.63;34.31;95266.56;4942352;28;20118;-65
2021/05/26 10:00:19;;;;;;;2.35;1.00;;;;;;;17.77;36.04;95279.13;4933017;28;20043;-63
2021/05/26 10:02:45;;;;;;;2.80;0.80;;;;;;;17.18;35.50;95287.91;4936437;28;20545;-73
2021/05/26 10:05:15;;;;;;;2.20;0.70;;;;;;;18.14;35.52;95266.19;4955675;29;20437;-69
2021/05/26 10:07:41;;;;;;;1.73;0.80;;;;;;;19.42;34.51;95268.94;4936349;28;20036;-69
2021/05/26 10:10:09;;;;;;;2.08;0.60;;;;;;;20.63;32.42;95270.22;4934961;28;20573;-67
2021/05/26 10:12:38;;;;;;;4.00;1.10;;;;;;;17.43;35.67;95275.91;4945473;28;20040;-66
2021/05/26 10:15:06;;;;;;;1.98;0.77;;;;;;;17.38;36.60;95276.94;4953709;28;20040;-66
2021/05/26 10:17:37;;;;;;;3.50;0.90;;;;;;;18.05;36.18;95262.91;4938168;29;20114;-67
2021/05/26 10:20:09;;;;;;;2.50;1.13;;;;;;;18.84;34.85;95238.53;4933970;28;20047;-66
2021/05/26 10:22:36;;;;;;;3.35;0.98;;;;;;;19.89;33.72;95253.59;4933448;28;20043;-66
2021/05/26 10:25:05;;;;;;;2.88;1.02;;;;;;;20.80;31.93;95251.88;4933854;29;20122;-67
2021/05/26 10:27:39;;;;;;;1.85;0.70;;;;;;;21.82;30.62;95243.38;4938592;28;20039;-67
2021/05/26 10:30:07;;;;;;;2.30;0.63;;;;;;;20.41;31.15;95249.38;4951405;28;20312;-67
2021/05/26 10:33:05;;;;;;;2.50;0.75;;;;;;;18.73;34.35;95250.97;4952786;29;20134;-67
2021/05/26 10:35:58;;;;;;;1.33;0.60;;;;;;;17.62;37.22;95251.84;4940913;29;20047;-68
2021/05/26 10:38:24;;;;;;;1.73;0.90;;;;;;;17.39;35.76;95259.69;4951033;29;20059;-67
2021/05/26 10:40:56;;;;;;;2.35;1.08;;;;;;;16.61;37.66;95247.53;4935230;28;20383;-67
2021/05/26 10:43:22;;;;;;;1.65;0.98;;;;;;;17.01;36.79;95249.44;4933045;29;20107;-67
2021/05/26 10:45:49;;;;;;;1.35;0.80;;;;;;;17.55;36.28;95234.72;4933287;28;20052;-66
2021/05/26 10:48:43;;;;;;;1.33;0.68;;;;;;;17.74;36.59;95226.00;4933167;28;20067;-66
2021/05/26 10:51:09;;;;;;;1.52;0.80;;;;;;;18.56;35.18;95228.66;4933061;28;20054;-66
2021/05/26 10:53:40;;;;;;;1.75;0.73;;;;;;;19.78;33.26;95225.66;4934721;29;20362;-67
2021/05/26 10:56:06;;;;;;;3.20;0.90;;;;;;;20.79;32.13;95221.38;4953080;28;20035;-67
2021/05/26 10:58:45;;;;;;;1.58;0.70;;;;;;;19.58;33.32;95239.16;4937406;28;20039;-67
2021/05/26 11:01:12;;;;;;;1.88;0.70;;;;;;;18.20;35.34;95245.94;4933029;28;20039;-67
2021/05/26 11:03:41;;;;;;;1.80;0.88;;;;;;;17.82;36.50;95251.97;4939155;29;20562;-66
2021/05/26 11:06:10;;;;;;;1.67;1.00;;;;;;;17.90;36.75;95243.72;4952149;28;20047;-66
2021/05/26 11:08:48;;;;;;;1.63;0.70;;;;;;;17.93;36.35;95255.69;4953976;29;20523;-66
2021/05/26 11:11:26;;;;;;;2.42;1.00;;;;;;;19.19;35.22;95233.03;4951211;29;20054;-66
2021/05/26 11:14:08;;;;;;;2.63;0.70;;;;;;;19.08;34.97;95240.91;4951745;28;20051;-66
2021/05/26 11:16:55;;;;;;;1.80;0.80;;;;;;;17.91;37.18;95245.28;4951997;28;20531;-67
2021/05/26 11:19:26;;;;;;;4.97;1.17;;;;;;;19.53;35.61;95244.84;4951901;28;20035;-66
2021/05/26 11:21:55;;;;;;;2.30;1.00;;;;;;;20.76;33.82;95225.56;4950452;28;20422;-67
2021/05/26 11:24:22;;;;;;;3.65;0.80;;;;;;;18.42;35.61;95226.44;4944480;28;20054;-67
2021/05/26 11:26:47;;;;;;;3.78;1.50;;;;;;;19.40;35.20;95232.69;4933762;28;20039;-68
2021/05/26 11:29:13;;;;;;;8.60;1.70;;;;;;;19.02;34.49;95225.41;4953731;29;20031;-67
2021/05/26 11:31:39;;;;;;;18.58;2.30;;;;;;;19.15;34.76;95232.22;4951491;28;20046;-66
2021/05/26 11:34:07;;;;;;;3.13;1.02;;;;;;;19.40;34.20;95213.78;4951354;28;20093;-67